createdAt,value
2022-09-01T00:00:56.756Z,76.03
2022-09-01T00:01:58.474Z,76.28
2022-09-01T00:03:01.361Z,76.24
2022-09-01T00:04:02.049Z,76.02
2022-09-01T00:05:03.646Z,76.06
2022-09-01T00:06:05.371Z,75.9
2022-09-01T00:07:07.112Z,76.08
2022-09-01T00:08:08.827Z,76.16
2022-09-01T00:09:10.734Z,76.69
2022-09-01T00:10:12.265Z,76.13
2022-09-01T00:11:13.997Z,76.22
2022-09-01T00:12:15.725Z,76.21
2022-09-01T00:13:17.458Z,76.07
2022-09-01T00:14:29.704Z,76.36
2022-09-01T00:15:20.899Z,76.24
2022-09-01T00:16:22.719Z,76.38
2022-09-01T00:17:24.356Z,76.24
2022-09-01T00:18:26.085Z,76.38
2022-09-01T00:19:12.563Z,76.22
2022-09-01T00:20:18.225Z,76.45
2022-09-01T00:21:15.838Z,76.42
2022-09-01T00:22:17.550Z,76.5
2022-09-01T00:23:19.291Z,76.68
2022-09-01T00:24:21.005Z,76.43
2022-09-01T00:25:22.715Z,76.67
2022-09-01T00:26:24.455Z,77.04
2022-09-01T00:27:30.650Z,76.96
2022-09-01T00:28:30.307Z,76.98
2022-09-01T00:29:29.638Z,77.05
2022-09-01T00:30:31.350Z,77.09
2022-09-01T00:31:33.233Z,76.88
2022-09-01T00:32:34.811Z,77.1
2022-09-01T00:33:36.535Z,77.3
2022-09-01T00:34:38.267Z,77.34
2022-09-01T00:35:40.117Z,77.35
2022-09-01T00:36:41.701Z,77.14
2022-09-01T00:37:43.438Z,77.61
2022-09-01T00:38:45.157Z,77.7
2022-09-01T00:39:46.886Z,77.83
2022-09-01T00:40:48.663Z,77.66
2022-09-01T00:41:50.375Z,77.6
2022-09-01T00:42:52.084Z,77.98
2022-09-01T00:43:53.781Z,77.57
2022-09-01T00:44:55.524Z,77.74
2022-09-01T00:45:57.329Z,78.1
2022-09-01T00:46:59.714Z,77.61
2022-09-01T00:48:00.735Z,77.92
2022-09-01T00:49:02.408Z,77.98
2022-09-01T00:50:04.251Z,77.83
2022-09-01T00:51:05.899Z,78.23
2022-09-01T00:52:07.775Z,78.28
2022-09-01T00:53:09.312Z,78.4
2022-09-01T00:54:11.034Z,78.3
2022-09-01T00:55:12.763Z,78.73
2022-09-01T00:56:14.485Z,78.24
2022-09-01T00:57:16.204Z,78.15
2022-09-01T00:58:19.721Z,78.69
2022-09-01T00:59:19.707Z,78.28
2022-09-01T01:00:21.392Z,78.54
2022-09-01T01:01:23.157Z,78.51
2022-09-01T01:02:24.901Z,78.44
2022-09-01T01:03:26.569Z,78.89
2022-09-01T01:04:28.289Z,78.87
2022-09-01T01:05:30.005Z,78.66
2022-09-01T01:06:31.775Z,78.56
2022-09-01T01:07:33.621Z,78.53
2022-09-01T01:08:35.184Z,78.51
2022-09-01T01:09:36.920Z,78.65
2022-09-01T01:10:38.626Z,78.56
2022-09-01T01:11:40.364Z,78.39
2022-09-01T01:12:42.090Z,78.44
2022-09-01T01:13:43.804Z,78.28
2022-09-01T01:14:45.853Z,78.5
2022-09-01T01:15:47.274Z,78.19
2022-09-01T01:16:49.046Z,78.21
2022-09-01T01:17:50.717Z,78.4
2022-09-01T01:18:52.440Z,78.59
2022-09-01T01:19:54.177Z,78.5
2022-09-01T01:20:55.890Z,78.81
2022-09-01T01:21:57.718Z,78.63
2022-09-01T01:22:59.341Z,78.66
2022-09-01T01:24:01.078Z,78.56
2022-09-01T01:25:02.811Z,78.78
2022-09-01T01:26:04.525Z,78.92
2022-09-01T01:27:06.238Z,78.94
2022-09-01T01:28:08.070Z,79.08
2022-09-01T01:29:09.698Z,79.16
2022-09-01T01:30:11.415Z,79.25
2022-09-01T01:31:13.245Z,79.1
2022-09-01T01:32:14.865Z,79.09
2022-09-01T01:33:16.628Z,79.15
2022-09-01T01:34:18.318Z,79.4
2022-09-01T01:35:20.046Z,79.31
2022-09-01T01:36:21.776Z,79.24
2022-09-01T01:37:23.501Z,79.29
2022-09-01T01:38:25.218Z,79.48
2022-09-01T01:39:26.949Z,79.41
2022-09-01T01:40:28.724Z,79.67
2022-09-01T01:41:30.399Z,79.4
2022-09-01T01:42:32.179Z,79.83
2022-09-01T01:43:33.857Z,79.75
2022-09-01T01:44:35.581Z,79.5
2022-09-01T01:45:37.349Z,79.85
2022-09-01T01:46:39.026Z,79.66
2022-09-01T01:47:40.737Z,79.83
2022-09-01T01:48:42.490Z,79.91
2022-09-01T01:49:44.214Z,80.33
2022-09-01T01:50:45.923Z,79.78
2022-09-01T01:51:47.647Z,80.21
2022-09-01T01:52:49.389Z,79.96
2022-09-01T01:53:51.102Z,79.94
2022-09-01T01:54:52.811Z,80.05
2022-09-01T01:55:54.564Z,79.95
2022-09-01T01:56:56.277Z,80.07
2022-09-01T01:57:57.998Z,80.34
2022-09-01T01:58:59.721Z,80.42
2022-09-01T02:00:01.470Z,80.34
2022-09-01T02:01:08.247Z,80.29
2022-09-01T02:02:04.991Z,80.36
2022-09-01T02:03:06.682Z,80.66
2022-09-01T02:04:08.392Z,80.7
2022-09-01T02:05:10.103Z,80.81
2022-09-01T02:06:11.832Z,80.69
2022-09-01T02:07:13.668Z,80.9
2022-09-01T02:08:15.279Z,81
2022-09-01T02:09:17.017Z,80.75
2022-09-01T02:10:18.744Z,80.81
2022-09-01T02:11:20.661Z,81.01
2022-09-01T02:12:22.160Z,81.01
2022-09-01T02:13:23.876Z,81.29
2022-09-01T02:14:25.606Z,81.22
2022-09-01T02:15:27.325Z,81.28
2022-09-01T02:16:29.124Z,81.46
2022-09-01T02:17:30.779Z,81.38
2022-09-01T02:18:32.501Z,81.46
2022-09-01T02:19:34.230Z,81.57
2022-09-01T02:20:35.978Z,81.38
2022-09-01T02:21:37.694Z,81.96
2022-09-01T02:22:39.412Z,81.94
2022-09-01T02:23:41.147Z,81.95
2022-09-01T02:24:42.863Z,81.99
2022-09-01T02:26:14.083Z,81.91
2022-09-01T02:26:46.320Z,82.13
2022-09-01T02:27:48.028Z,82.29
2022-09-01T02:28:54.817Z,82.49
2022-09-01T02:29:51.484Z,82.14
2022-09-01T02:30:53.307Z,82.32
2022-09-01T02:31:55.136Z,82.3
2022-09-01T02:32:56.696Z,82.46
2022-09-01T02:33:58.412Z,82.31
2022-09-01T02:35:00.157Z,82.54
2022-09-01T02:36:01.848Z,82.56
2022-09-01T02:37:03.566Z,82.93
2022-09-01T02:38:05.303Z,82.8
2022-09-01T02:39:08.064Z,83
2022-09-01T02:40:10.116Z,82.82
2022-09-01T02:41:10.507Z,82.95
2022-09-01T02:42:12.261Z,83.29
2022-09-01T02:43:13.966Z,83.27
2022-09-01T02:44:15.672Z,83.57
2022-09-01T02:45:17.491Z,83.45
2022-09-01T02:46:19.179Z,83.37
2022-09-01T02:47:20.848Z,83.81
2022-09-01T02:48:22.577Z,83.61
2022-09-01T02:49:24.292Z,83.5
2022-09-01T02:50:26.041Z,83.81
2022-09-01T02:51:27.753Z,83.87
2022-09-01T02:52:29.459Z,83.86
2022-09-01T02:53:31.164Z,84.18
2022-09-01T02:54:33.018Z,84.43
2022-09-01T02:55:34.614Z,84.37
2022-09-01T02:56:36.350Z,84.47
2022-09-01T02:57:38.072Z,84.47
2022-09-01T02:58:39.801Z,84.75
2022-09-01T02:59:43.792Z,85.11
2022-09-01T03:00:43.504Z,84.74
2022-09-01T03:01:44.977Z,84.86
2022-09-01T03:02:46.701Z,85.1
2022-09-01T03:03:48.422Z,85.08
2022-09-01T03:04:50.219Z,85.21
2022-09-01T03:05:51.888Z,85.42
2022-09-01T03:06:53.618Z,85.57
2022-09-01T03:07:55.331Z,85.68
2022-09-01T03:08:57.122Z,85.89
2022-09-01T03:09:58.781Z,85.8
2022-09-01T03:11:00.499Z,85.8
2022-09-01T03:12:02.231Z,86.07
2022-09-01T03:13:04.009Z,86.17
2022-09-01T03:14:05.681Z,86.17
2022-09-01T03:15:07.405Z,86.28
2022-09-01T03:16:09.252Z,86.25
2022-09-01T03:17:10.854Z,86.75
2022-09-01T03:18:12.643Z,86.88
2022-09-01T03:19:14.304Z,86.78
2022-09-01T03:20:16.030Z,86.77
2022-09-01T03:21:17.764Z,86.95
2022-09-01T03:22:19.489Z,86.97
2022-09-01T03:23:21.214Z,87.29
2022-09-01T03:24:22.941Z,87.28
2022-09-01T03:25:24.656Z,87.58
2022-09-01T03:26:26.387Z,87.24
2022-09-01T03:27:28.105Z,87.76
2022-09-01T03:28:29.831Z,87.83
2022-09-01T03:29:31.559Z,88.18
2022-09-01T03:30:33.319Z,87.84
2022-09-01T03:31:35.020Z,88.16
2022-09-01T03:32:36.738Z,88.31
2022-09-01T03:33:38.466Z,88.05
2022-09-01T03:34:40.183Z,88.41
2022-09-01T03:35:41.914Z,88.41
2022-09-01T03:36:43.614Z,88.23
2022-09-01T03:37:45.366Z,88.42
2022-09-01T03:38:47.083Z,88.48
2022-09-01T03:39:48.815Z,88.69
2022-09-01T03:40:50.543Z,88.75
2022-09-01T03:41:52.271Z,88.72
2022-09-01T03:42:53.985Z,88.65
2022-09-01T03:43:55.704Z,88.95
2022-09-01T03:44:57.458Z,89.75
2022-09-01T03:45:59.383Z,89.4
2022-09-01T03:47:01.119Z,89.46
2022-09-01T03:48:02.613Z,89.63
2022-09-01T03:49:04.345Z,89.61
2022-09-01T03:50:06.252Z,89.57
2022-09-01T03:51:07.807Z,89.79
2022-09-01T03:52:09.516Z,89.91
2022-09-01T03:53:11.235Z,90.31
2022-09-01T03:54:12.973Z,90.04
2022-09-01T03:55:14.703Z,90.14
2022-09-01T03:56:16.416Z,89.91
2022-09-01T03:57:18.140Z,90.38
2022-09-01T03:58:19.880Z,90.26
2022-09-01T03:59:21.589Z,90.25
2022-09-01T04:00:23.329Z,90.24
2022-09-01T04:01:25.219Z,90.55
2022-09-01T04:02:26.890Z,91.02
2022-09-01T04:03:31.090Z,90.49
2022-09-01T04:04:30.216Z,90.9
2022-09-01T04:05:31.947Z,90.93
2022-09-01T04:06:33.679Z,91
2022-09-01T04:07:35.388Z,91.26
2022-09-01T04:08:37.125Z,91.29
2022-09-01T04:09:38.849Z,91.14
2022-09-01T04:10:40.690Z,91.55
2022-09-01T04:11:45.722Z,91.36
2022-09-01T04:12:44.019Z,91.59
2022-09-01T04:13:45.743Z,91.93
2022-09-01T04:14:47.472Z,91.42
2022-09-01T04:15:49.197Z,92.36
2022-09-01T04:16:51.014Z,92.03
2022-09-01T04:17:52.638Z,92
2022-09-01T04:18:55.717Z,92.14
2022-09-01T04:19:56.109Z,92.28
2022-09-01T04:20:57.828Z,92.84
2022-09-01T04:21:59.555Z,92.43
2022-09-01T04:23:01.354Z,92.36
2022-09-01T04:24:03.172Z,92.65
2022-09-01T04:25:04.726Z,92.55
2022-09-01T04:26:06.568Z,92.8
2022-09-01T04:27:08.180Z,92.51
2022-09-01T04:28:09.898Z,92.85
2022-09-01T04:29:11.627Z,92.93
2022-09-01T04:30:13.356Z,93.38
2022-09-01T04:31:15.165Z,93.29
2022-09-01T04:32:16.806Z,93.45
2022-09-01T04:33:18.560Z,93.32
2022-09-01T04:34:20.262Z,93.34
2022-09-01T04:35:21.982Z,93.61
2022-09-01T04:36:23.728Z,93.39
2022-09-01T04:37:25.431Z,93.37
2022-09-01T04:38:27.159Z,93.92
2022-09-01T04:39:28.876Z,93.77
2022-09-01T04:40:30.662Z,94.05
2022-09-01T04:41:33.727Z,93.95
2022-09-01T04:42:34.071Z,93.87
2022-09-01T04:43:35.773Z,94.38
2022-09-01T04:44:37.508Z,94.19
2022-09-01T04:45:39.285Z,94.27
2022-09-01T04:46:40.961Z,93.83
2022-09-01T04:47:42.694Z,94.08
2022-09-01T04:48:44.405Z,94.17
2022-09-01T04:48:59.900Z,94.59
2022-09-01T04:50:01.595Z,94.39
2022-09-01T04:51:04.310Z,94.45
2022-09-01T04:52:05.025Z,94.17
2022-09-01T04:53:06.771Z,94.18
2022-09-01T04:54:08.480Z,94.37
2022-09-01T04:55:10.187Z,94.34
2022-09-01T04:56:11.914Z,94.25
2022-09-01T04:57:13.659Z,93.86
2022-09-01T04:58:15.380Z,94.26
2022-09-01T04:59:17.096Z,94.25
2022-09-01T05:00:18.828Z,94.15
2022-09-01T05:01:20.653Z,94
2022-09-01T05:02:22.344Z,94.21
2022-09-01T05:03:24.119Z,94.25
2022-09-01T05:04:25.720Z,94.02
2022-09-01T05:05:27.463Z,94.25
2022-09-01T05:06:29.178Z,94.09
2022-09-01T05:07:30.903Z,93.8
2022-09-01T05:08:32.891Z,93.76
2022-09-01T05:09:34.359Z,93.89
2022-09-01T05:10:36.077Z,94.03
2022-09-01T05:11:37.809Z,93.69
2022-09-01T05:12:39.532Z,93.88
2022-09-01T05:13:41.242Z,93.95
2022-09-01T05:14:42.984Z,93.88
2022-09-01T05:15:44.721Z,93.87
2022-09-01T05:16:46.538Z,93.75
2022-09-01T05:17:48.157Z,93.92
2022-09-01T05:18:49.932Z,93.86
2022-09-01T05:19:51.599Z,94.43
2022-09-01T05:20:53.333Z,94.29
2022-09-01T05:21:55.120Z,94.31
2022-09-01T05:22:56.772Z,94
2022-09-01T05:23:58.727Z,93.93
2022-09-01T05:25:00.236Z,93.82
2022-09-01T05:26:05.018Z,94.18
2022-09-01T05:27:03.680Z,94.15
2022-09-01T05:28:05.410Z,94.51
2022-09-01T05:29:07.164Z,94.25
2022-09-01T05:30:08.866Z,94.46
2022-09-01T05:31:10.639Z,94.28
2022-09-01T05:32:12.318Z,93.9
2022-09-01T05:33:14.058Z,94.17
2022-09-01T05:34:15.762Z,94.23
2022-09-01T05:35:17.487Z,94.3
2022-09-01T05:36:19.212Z,94.36
2022-09-01T05:37:20.944Z,94.2
2022-09-01T05:38:22.667Z,94.21
2022-09-01T05:39:24.524Z,94.3
2022-09-01T05:40:26.154Z,94.17
2022-09-01T05:41:27.889Z,94.08
2022-09-01T05:42:29.603Z,93.99
2022-09-01T05:43:31.317Z,94.18
2022-09-01T05:44:33.019Z,93.67
2022-09-01T05:45:56.245Z,93.83
2022-09-01T05:46:36.558Z,93.86
2022-09-01T05:47:38.195Z,93.92
2022-09-01T05:48:40.174Z,94.11
2022-09-01T05:49:41.649Z,94.22
2022-09-01T05:50:43.392Z,94.32
2022-09-01T05:51:45.661Z,93.63
2022-09-01T05:52:16.216Z,93.77
2022-09-01T05:53:17.693Z,94.27
2022-09-01T05:54:19.413Z,94
2022-09-01T05:55:21.240Z,93.9
2022-09-01T05:56:22.853Z,94.04
2022-09-01T05:57:34.306Z,93.44
2022-09-01T05:58:26.692Z,93.33
2022-09-01T05:59:28.044Z,93.17
2022-09-01T06:00:29.757Z,93.24
2022-09-01T06:01:31.539Z,93.36
2022-09-01T06:02:33.284Z,93.57
2022-09-01T06:03:38.062Z,93.43
2022-09-01T06:04:36.659Z,93.7
2022-09-01T06:05:38.376Z,93.69
2022-09-01T06:07:01.744Z,93.09
2022-09-01T06:07:41.833Z,93.06
2022-09-01T06:08:46.734Z,93.51
2022-09-01T06:09:45.299Z,92.91
2022-09-01T06:10:47.009Z,92.91
2022-09-01T06:11:48.734Z,93.34
2022-09-01T06:12:50.467Z,93.53
2022-09-01T06:13:55.242Z,93.75
2022-09-01T06:14:53.909Z,93.65
2022-09-01T06:15:55.689Z,93.58
2022-09-01T06:16:57.368Z,92.71
2022-09-01T06:17:59.082Z,92.72
2022-09-01T06:19:00.810Z,92.9
2022-09-01T06:20:02.534Z,92.41
2022-09-01T06:21:04.325Z,92.7
2022-09-01T06:22:05.995Z,92.56
2022-09-01T06:23:07.715Z,92.69
2022-09-01T06:24:09.457Z,92.46
2022-09-01T06:25:11.162Z,92.7
2022-09-01T06:26:12.888Z,92.02
2022-09-01T06:27:14.621Z,92.53
2022-09-01T06:28:16.341Z,91.79
2022-09-01T06:29:18.058Z,92.18
2022-09-01T06:30:23.493Z,92.23
2022-09-01T06:31:21.622Z,92.19
2022-09-01T06:32:23.240Z,92.32
2022-09-01T06:33:25.016Z,91.75
2022-09-01T06:34:26.699Z,91.8
2022-09-01T06:35:28.425Z,92.12
2022-09-01T06:36:34.865Z,91.22
2022-09-01T06:38:20.865Z,91.53
2022-09-01T06:39:22.605Z,91.43
2022-09-01T06:40:24.367Z,91.68
2022-09-01T06:41:26.052Z,91.58
2022-09-01T06:42:27.771Z,91.91
2022-09-01T06:43:29.504Z,91.41
2022-09-01T06:44:31.232Z,91.38
2022-09-01T06:45:32.943Z,91.53
2022-09-01T06:46:34.747Z,91.46
2022-09-01T06:47:36.402Z,90.96
2022-09-01T06:48:38.124Z,90.67
2022-09-01T06:49:39.856Z,90.85
2022-09-01T06:51:43.374Z,91.1
2022-09-01T06:53:46.898Z,90.64
2022-09-01T06:54:48.484Z,90.67
2022-09-01T06:55:50.191Z,90.73
2022-09-01T06:56:53.384Z,89.36
2022-09-01T06:58:06.542Z,90.08
2022-09-01T06:58:55.383Z,89.92
2022-09-01T06:59:57.103Z,88.78
2022-09-01T07:00:58.815Z,88.63
2022-09-01T07:02:02.543Z,89.47
2022-09-01T07:03:02.349Z,88.89
2022-09-01T07:04:04.064Z,89.45
2022-09-01T07:05:05.729Z,88.45
2022-09-01T07:06:07.441Z,88.98
2022-09-01T07:08:10.887Z,88.74
2022-09-01T07:10:22.845Z,88.6
2022-09-01T07:11:20.275Z,88.64
2022-09-01T07:13:19.524Z,88.04
2022-09-01T07:14:21.367Z,88.01
2022-09-01T07:16:34.024Z,88.34
2022-09-01T07:17:26.416Z,88.44
2022-09-01T07:18:28.551Z,89.09
2022-09-01T07:19:48.781Z,88.39
2022-09-01T07:20:31.614Z,88.74
2022-09-01T07:21:39.158Z,88.3
2022-09-01T07:22:35.803Z,88.2
2022-09-01T07:24:05.925Z,88.05
2022-09-01T07:24:38.507Z,88.05
2022-09-01T07:26:01.212Z,87.99
2022-09-01T07:27:07.386Z,88.01
2022-09-01T07:29:01.290Z,87.24
2022-09-01T07:30:02.635Z,87.25
2022-09-01T07:34:38.679Z,87.93
2022-09-01T07:35:11.794Z,86.91
2022-09-01T07:36:29.353Z,87.18
2022-09-01T07:38:46.887Z,86.99
2022-09-01T07:39:48.437Z,87.14
2022-09-01T07:42:31.191Z,88.7
2022-09-01T07:42:59.097Z,87.75
2022-09-01T07:43:35.365Z,87.32
2022-09-01T07:44:37.030Z,86.32
2022-09-01T07:45:47.167Z,86.73
2022-09-01T07:46:40.526Z,86.72
2022-09-01T07:47:53.910Z,86.59
2022-09-01T07:49:03.293Z,85.85
2022-09-01T07:50:11.368Z,86.21
2022-09-01T07:51:49.132Z,86.83
2022-09-01T07:52:50.820Z,86.48
2022-09-01T07:53:52.546Z,86.34
2022-09-01T07:54:54.267Z,86.08
2022-09-01T07:55:55.985Z,85.86
2022-09-01T07:56:57.730Z,85.74
2022-09-01T07:57:59.456Z,84.81
2022-09-01T07:59:01.175Z,84.98
2022-09-01T08:00:02.910Z,84.75
2022-09-01T08:01:04.690Z,85.4
2022-09-01T08:02:06.423Z,85.12
2022-09-01T08:03:08.162Z,84.39
2022-09-01T08:04:09.822Z,84.33
2022-09-01T08:05:11.567Z,84.48
2022-09-01T08:06:13.258Z,84.87
2022-09-01T08:07:16.051Z,84.26
2022-09-01T08:08:19.958Z,85.4
2022-09-01T08:09:32.998Z,85.71
2022-09-01T08:10:20.506Z,84.61
2022-09-01T08:11:40.042Z,85.37
2022-09-01T08:12:28.906Z,84.96
2022-09-01T08:13:26.032Z,84.82
2022-09-01T08:14:27.061Z,84.82
2022-09-01T08:16:06.379Z,83.92
2022-09-01T08:16:39.443Z,84.86
2022-09-01T08:17:34.820Z,85.06
2022-09-01T08:18:47.944Z,84.39
2022-09-01T08:19:35.726Z,84.58
2022-09-01T08:20:37.430Z,83.16
2022-09-01T08:21:39.183Z,83.19
2022-09-01T08:22:41.109Z,83.41
2022-09-01T08:23:43.256Z,83.93
2022-09-01T08:24:44.333Z,83.04
2022-09-01T08:25:46.051Z,82.42
2022-09-01T08:26:47.814Z,83.08
2022-09-01T08:27:49.512Z,82.33
2022-09-01T08:28:55.430Z,82.09
2022-09-01T08:29:52.972Z,80.75
2022-09-01T08:30:54.738Z,81.68
2022-09-01T08:31:58.552Z,82.32
2022-09-01T08:32:58.137Z,82.53
2022-09-01T08:33:59.863Z,82.38
2022-09-01T08:35:01.600Z,82.38
2022-09-01T08:36:04.502Z,82.8
2022-09-01T08:37:05.083Z,82.01
2022-09-01T08:38:06.765Z,81.97
2022-09-01T08:39:08.500Z,82.8
2022-09-01T08:40:10.323Z,81.72
2022-09-01T08:41:11.939Z,81.9
2022-09-01T08:42:13.677Z,81.34
2022-09-01T08:43:15.737Z,80.92
2022-09-01T08:44:17.104Z,81.28
2022-09-01T08:45:18.839Z,81.29
2022-09-01T08:46:20.618Z,80.08
2022-09-01T08:47:35.460Z,80.83
2022-09-01T08:49:26.902Z,80.04
2022-09-01T08:50:27.315Z,79.85
2022-09-01T08:51:29.069Z,77.77
2022-09-01T08:52:30.806Z,78.54
2022-09-01T08:53:32.818Z,76.58
2022-09-01T08:54:37.430Z,77.2
2022-09-01T08:55:40.284Z,77.51
2022-09-01T08:56:40.583Z,76.9
2022-09-01T08:59:02.730Z,77.35
2022-09-01T09:00:02.985Z,77.72
2022-09-01T09:01:04.736Z,78.14
2022-09-01T09:02:36.516Z,76.21
2022-09-01T09:03:41.092Z,76.88
2022-09-01T09:04:38.755Z,76.63
2022-09-01T09:05:40.502Z,76.07
2022-09-01T09:06:42.222Z,76.69
2022-09-01T09:07:43.921Z,76.12
2022-09-01T09:08:45.693Z,76.81
2022-09-01T09:09:53.684Z,76.51
2022-09-01T09:10:49.106Z,76
2022-09-01T09:11:50.853Z,75.9
2022-09-01T09:12:52.584Z,74.73
2022-09-01T09:13:54.334Z,74.49
2022-09-01T09:14:56.064Z,74.04
2022-09-01T09:16:07.608Z,73.68
2022-09-01T09:16:59.521Z,73.89
2022-09-01T09:18:01.254Z,73.83
2022-09-01T09:19:04.220Z,74.09
2022-09-01T09:20:04.725Z,73.75
2022-09-01T09:21:06.530Z,73.89
2022-09-01T09:22:08.204Z,72.69
2022-09-01T09:23:09.938Z,73.83
2022-09-01T09:24:11.651Z,74.14
2022-09-01T09:25:13.432Z,75.05
2022-09-01T09:26:16.688Z,74.71
2022-09-01T09:27:16.867Z,74.64
2022-09-01T09:28:18.591Z,74.07
2022-09-01T09:29:20.339Z,73.36
2022-09-01T09:30:22.061Z,74.04
2022-09-01T09:31:23.913Z,74.59
2022-09-01T09:32:39.782Z,74.65
2022-09-01T09:33:50.343Z,74.63
2022-09-01T09:34:29.011Z,73.61
2022-09-01T09:35:31.600Z,72.27
2022-09-01T09:36:32.483Z,73.35
2022-09-01T09:37:36.096Z,73.88
2022-09-01T09:38:35.962Z,74.48
2022-09-01T09:39:37.671Z,73.08
2022-09-01T09:41:00.014Z,73.75
2022-09-01T09:41:41.239Z,71.35
2022-09-01T09:42:42.886Z,72.15
2022-09-01T09:43:47.513Z,71.01
2022-09-01T09:44:46.353Z,68.49
2022-09-01T09:45:48.125Z,68.92
2022-09-01T09:46:52.937Z,70.03
2022-09-01T09:47:54.683Z,71
2022-09-01T09:48:56.368Z,70.45
2022-09-01T09:49:58.080Z,68.44
2022-09-01T09:50:59.812Z,67.32
2022-09-01T09:52:01.603Z,67.25
2022-09-01T09:53:03.328Z,66.56
2022-09-01T09:54:05.076Z,67.69
2022-09-01T09:55:06.823Z,67.33
2022-09-01T09:56:08.562Z,66.58
2022-09-01T09:57:10.299Z,66.39
2022-09-01T09:58:12.029Z,65.47
2022-09-01T09:59:13.719Z,63.84
2022-09-01T10:00:15.462Z,63.56
2022-09-01T10:01:17.890Z,64.27
2022-09-01T10:02:18.931Z,63.24
2022-09-01T10:03:20.792Z,63.34
2022-09-01T10:04:22.440Z,62.32
2022-09-01T10:05:24.166Z,63.92
2022-09-01T10:06:25.865Z,64.55
2022-09-01T10:07:27.606Z,63.67
2022-09-01T10:08:29.335Z,63.26
2022-09-01T10:09:31.074Z,64.07
2022-09-01T10:10:32.823Z,64.07
2022-09-01T10:11:35.646Z,64.17
2022-09-01T10:12:36.315Z,62.47
2022-09-01T10:13:51.490Z,61.74
2022-09-01T10:14:53.329Z,63.02
2022-09-01T10:15:54.151Z,62.15
2022-09-01T10:16:55.959Z,62.05
2022-09-01T10:18:59.353Z,62.04
2022-09-01T10:20:01.096Z,62.51
2022-09-01T10:21:04.277Z,62.76
2022-09-01T10:22:04.559Z,62.71
2022-09-01T10:23:06.297Z,62.55
2022-09-01T10:24:21.049Z,61.38
2022-09-01T10:25:10.422Z,58.26
2022-09-01T10:26:11.493Z,60.83
2022-09-01T10:27:14.942Z,60.14
2022-09-01T10:28:20.664Z,60.11
2022-09-01T10:29:16.713Z,60.97
2022-09-01T10:30:19.850Z,59.13
2022-09-01T10:31:20.310Z,60.53
2022-09-01T10:32:35.131Z,60.82
2022-09-01T10:33:23.689Z,60.71
2022-09-01T10:34:25.846Z,57.45
2022-09-01T10:35:27.102Z,59.64
2022-09-01T10:36:28.854Z,60.25
2022-09-01T10:37:30.563Z,59.77
2022-09-01T10:38:32.296Z,59.95
2022-09-01T10:39:39.650Z,58.34
2022-09-01T10:40:35.872Z,58.42
2022-09-01T10:41:39.009Z,58.43
2022-09-01T10:42:39.229Z,58.15
2022-09-01T10:43:40.968Z,57.75
2022-09-01T10:44:42.713Z,57.1
2022-09-01T10:45:44.520Z,58.25
2022-09-01T10:46:50.222Z,56.5
2022-09-01T10:47:47.948Z,55.17
2022-09-01T10:48:55.365Z,56.45
2022-09-01T10:49:51.383Z,57.55
2022-09-01T10:50:53.113Z,56.31
2022-09-01T10:51:56.525Z,56.94
2022-09-01T10:52:56.583Z,56.85
2022-09-01T10:54:02.294Z,57.38
2022-09-01T10:55:00.080Z,56.24
2022-09-01T10:56:02.717Z,55.58
2022-09-01T10:57:08.929Z,56.47
2022-09-01T10:59:30.322Z,56.74
2022-09-01T10:59:33.605Z,55.89
2022-09-01T11:00:34.881Z,55.92
2022-09-01T11:01:11.106Z,55.83
2022-09-01T11:02:28.529Z,54.91
2022-09-01T11:03:30.639Z,55.18
2022-09-01T11:04:15.811Z,54.08
2022-09-01T11:05:17.547Z,54.87
2022-09-01T11:06:19.145Z,55.48
2022-09-01T11:07:39.018Z,52.9
2022-09-01T11:08:22.702Z,53.2
2022-09-01T11:09:24.336Z,54.8
2022-09-01T11:10:33.208Z,54.67
2022-09-01T11:11:27.806Z,54.36
2022-09-01T11:12:30.179Z,55.02
2022-09-01T11:13:31.266Z,56.03
2022-09-01T11:14:33.018Z,56.21
2022-09-01T11:15:35.437Z,53.72
2022-09-01T11:16:49.160Z,53.52
2022-09-01T11:17:38.333Z,53.83
2022-09-01T11:18:39.942Z,53.36
2022-09-01T11:19:41.739Z,54.11
2022-09-01T11:20:43.898Z,52.63
2022-09-01T11:21:45.137Z,53.43
2022-09-01T11:22:46.899Z,53.5
2022-09-01T11:23:48.601Z,52.96
2022-09-01T11:24:58.065Z,53.49
2022-09-01T11:26:19.274Z,54.11
2022-09-01T11:26:53.816Z,53.64
2022-09-01T11:28:29.253Z,54.21
2022-09-01T11:29:30.995Z,53.74
2022-09-01T11:30:32.761Z,54.31
2022-09-01T11:31:34.556Z,55.01
2022-09-01T11:33:51.747Z,53.89
2022-09-01T11:34:52.136Z,53.37
2022-09-01T11:35:53.877Z,52.32
2022-09-01T11:36:55.646Z,53.13
2022-09-01T11:37:57.325Z,50.47
2022-09-01T11:38:59.081Z,51.68
2022-09-01T11:40:00.824Z,51.35
2022-09-01T11:41:07.551Z,51.73
2022-09-01T11:42:04.722Z,50.56
2022-09-01T11:43:06.011Z,51.03
2022-09-01T11:44:07.770Z,49.62
2022-09-01T11:45:12.783Z,51.41
2022-09-01T11:46:14.619Z,50.3
2022-09-01T11:48:27.459Z,49.77
2022-09-01T11:49:29.040Z,49.29
2022-09-01T11:50:30.763Z,50.71
2022-09-01T11:51:32.534Z,50.35
2022-09-01T11:52:35.280Z,52.03
2022-09-01T11:53:35.979Z,51.75
2022-09-01T11:54:37.704Z,51.83
2022-09-01T11:55:39.451Z,50.59
2022-09-01T11:56:41.182Z,51.33
2022-09-01T11:57:42.913Z,51.34
2022-09-01T11:58:44.659Z,51.1
2022-09-01T11:59:46.394Z,50.01
2022-09-01T12:00:48.131Z,49.07
2022-09-01T12:01:49.929Z,49.6
2022-09-01T12:02:51.702Z,49.79
2022-09-01T12:03:53.374Z,49.17
2022-09-01T12:04:55.085Z,49.59
2022-09-01T12:07:10.704Z,48.31
2022-09-01T12:08:11.861Z,49.15
2022-09-01T12:09:13.581Z,48.28
2022-09-01T12:10:15.368Z,49.15
2022-09-01T12:11:17.120Z,49.41
2022-09-01T12:12:18.884Z,50.09
2022-09-01T12:13:20.683Z,50.86
2022-09-01T12:14:22.319Z,50.41
2022-09-01T12:15:24.125Z,50.71
2022-09-01T12:16:25.850Z,49.77
2022-09-01T12:17:27.505Z,49.94
2022-09-01T12:18:29.233Z,50.17
2022-09-01T12:19:30.971Z,50.17
2022-09-01T12:20:58.407Z,49.54
2022-09-01T12:22:00.137Z,50.34
2022-09-01T12:23:01.884Z,50.55
2022-09-01T12:24:03.659Z,49.66
2022-09-01T12:25:06.535Z,49.63
2022-09-01T12:26:07.116Z,49.41
2022-09-01T12:27:08.796Z,49.56
2022-09-01T12:28:12.003Z,48.7
2022-09-01T12:29:12.274Z,49.25
2022-09-01T12:30:15.941Z,49.13
2022-09-01T12:31:20.993Z,50.06
2022-09-01T12:32:22.666Z,49.86
2022-09-01T12:33:24.735Z,50.45
2022-09-01T12:34:26.149Z,50.81
2022-09-01T12:35:27.872Z,47.9
2022-09-01T12:36:31.078Z,47.41
2022-09-01T12:37:31.303Z,47.6
2022-09-01T12:38:33.039Z,47.76
2022-09-01T12:39:35.799Z,47.88
2022-09-01T12:40:36.533Z,48.68
2022-09-01T12:41:39.097Z,48.8
2022-09-01T12:42:44.724Z,48.57
2022-09-01T12:43:41.765Z,48.85
2022-09-01T12:44:43.456Z,48.99
2022-09-01T12:45:45.358Z,48.66
2022-09-01T12:46:47.003Z,48.11
2022-09-01T12:47:50.349Z,47.83
2022-09-01T12:48:50.390Z,48.22
2022-09-01T12:49:52.413Z,47.61
2022-09-01T12:50:56.068Z,48.23
2022-09-01T12:51:57.195Z,49.28
2022-09-01T12:52:57.561Z,47.31
2022-09-01T12:53:59.056Z,47.34
2022-09-01T12:55:00.781Z,47.22
2022-09-01T12:56:05.557Z,47.42
2022-09-01T12:57:04.243Z,47.45
2022-09-01T12:58:37.007Z,45.93
2022-09-01T12:59:38.736Z,46.67
2022-09-01T13:00:40.654Z,46.4
2022-09-01T13:01:42.354Z,46.68
2022-09-01T13:02:44.106Z,47.19
2022-09-01T13:03:45.639Z,46.82
2022-09-01T13:04:47.769Z,46.57
2022-09-01T13:05:49.100Z,47.3
2022-09-01T13:06:50.832Z,47.75
2022-09-01T13:07:52.782Z,47.64
2022-09-01T13:08:54.317Z,47.97
2022-09-01T13:09:56.122Z,47.15
2022-09-01T13:10:57.763Z,46.85
2022-09-01T13:12:07.452Z,46.32
2022-09-01T13:13:01.255Z,47.43
2022-09-01T13:14:03.032Z,45.74
2022-09-01T13:15:04.790Z,45.68
2022-09-01T13:16:06.736Z,46.83
2022-09-01T13:17:13.896Z,47.17
2022-09-01T13:18:09.980Z,47.37
2022-09-01T13:19:11.995Z,47.61
2022-09-01T13:20:13.412Z,46.71
2022-09-01T13:21:15.156Z,46.5
2022-09-01T13:22:16.899Z,46.58
2022-09-01T13:23:18.634Z,45.48
2022-09-01T13:24:22.417Z,45.26
2022-09-01T13:25:22.090Z,46.13
2022-09-01T13:26:23.848Z,45
2022-09-01T13:27:25.563Z,45.66
2022-09-01T13:28:27.299Z,46.07
2022-09-01T13:29:29.012Z,45.85
2022-09-01T13:32:20.988Z,46.06
2022-09-01T13:33:22.761Z,46.53
2022-09-01T13:34:20.332Z,46.3
2022-09-01T13:40:49.260Z,45.94
2022-09-01T13:41:50.903Z,44.76
2022-09-01T13:42:52.646Z,44.96
2022-09-01T13:43:54.413Z,45.78
2022-09-01T13:44:57.125Z,46.39
2022-09-01T13:45:58.940Z,46.53
2022-09-01T13:47:29.210Z,46.27
2022-09-01T13:48:17.439Z,46.63